createdAt,value
2022-12-03T00:00:35.426Z,98736.09
2022-12-03T00:03:02.635Z,98728.16
2022-12-03T00:05:29.813Z,98736.09
2022-12-03T00:07:56.979Z,98734.31
2022-12-03T00:10:24.158Z,98731.13
2022-12-03T00:12:51.511Z,98732.16
2022-12-03T00:15:19.625Z,98735.50
2022-12-03T00:17:46.694Z,98731.22
2022-12-03T00:20:13.824Z,98728.84
2022-12-03T00:22:40.941Z,98735.00
2022-12-03T00:25:08.003Z,98732.50
2022-12-03T00:27:35.102Z,98730.72
2022-12-03T00:30:02.247Z,98733.34
2022-12-03T00:32:29.390Z,98730.72
2022-12-03T00:40:18.167Z,98721.00
2022-12-03T00:42:45.733Z,98725.13
2022-12-03T00:45:22.685Z,98729.41
2022-12-03T00:47:52.374Z,98728.69
2022-12-03T00:50:19.441Z,98725.28
2022-12-03T00:52:46.530Z,98727.47
2022-12-03T00:55:13.608Z,98726.75
2022-12-03T00:57:40.694Z,98730.81
2022-12-03T01:00:07.750Z,98725.84
2022-12-03T01:02:34.896Z,98733.75
2022-12-03T01:05:02.167Z,98731.75
2022-12-03T01:07:29.431Z,98734.56
2022-12-03T01:09:56.492Z,98730.91
2022-12-03T01:12:23.582Z,98731.97
2022-12-03T01:14:50.816Z,98729.13
2022-12-03T01:17:18.045Z,98731.75
2022-12-03T01:19:48.401Z,98730.22
2022-12-03T01:22:15.745Z,98728.66
2022-12-03T01:24:42.848Z,98735.22
2022-12-03T01:27:09.905Z,98731.66
2022-12-03T01:29:36.972Z,98728.19
2022-12-03T01:32:19.947Z,98732.63
2022-12-03T01:34:47.197Z,98730.78
2022-12-03T01:37:14.274Z,98732.53
2022-12-03T01:39:41.338Z,98734.09
2022-12-03T01:42:08.412Z,98731.66
2022-12-03T01:44:35.533Z,98730.00
2022-12-03T01:47:02.673Z,98729.06
2022-12-03T01:49:30.026Z,98727.53
2022-12-03T01:51:57.127Z,98740.56
2022-12-03T01:54:24.193Z,98732.75
2022-12-03T01:56:51.255Z,98741.38
2022-12-03T01:59:18.315Z,98733.78
2022-12-03T02:01:45.437Z,98733.78
2022-12-03T02:04:12.576Z,98735.44
2022-12-03T02:06:39.677Z,98727.75
2022-12-03T02:09:08.607Z,98732.13
2022-12-03T02:11:35.661Z,98732.00
2022-12-03T02:14:02.717Z,98730.44
2022-12-03T02:16:29.859Z,98729.53
2022-12-03T02:18:57.030Z,98730.44
2022-12-03T02:21:24.106Z,98734.13
2022-12-03T02:23:51.349Z,98736.59
2022-12-03T02:26:18.402Z,98737.66
2022-12-03T02:28:45.481Z,98733.59
2022-12-03T02:31:12.618Z,98736.47
2022-12-03T02:33:39.703Z,98733.13
2022-12-03T02:36:06.773Z,98737.16
2022-12-03T02:38:33.873Z,98737.28
2022-12-03T02:41:00.934Z,98738.22
2022-12-03T02:43:28.007Z,98742.59
2022-12-03T02:45:55.265Z,98733.13
2022-12-03T02:48:22.330Z,98738.66
2022-12-03T02:50:49.386Z,98740.44
2022-12-03T02:53:16.441Z,98739.97
2022-12-03T02:55:43.493Z,98733.69
2022-12-03T02:58:10.568Z,98734.41
2022-12-03T03:00:37.923Z,98736.28
2022-12-03T03:03:05.095Z,98740.88
2022-12-03T03:05:32.195Z,98743.47
2022-12-03T03:07:59.365Z,98743.47
2022-12-03T03:10:30.835Z,98739.91
2022-12-03T03:12:58.396Z,98732.38
2022-12-03T03:15:25.615Z,98740.03
2022-12-03T03:17:52.696Z,98741.81
2022-12-03T03:20:19.793Z,98739.31
2022-12-03T03:22:46.848Z,98745.38
2022-12-03T03:25:14.017Z,98742.78
2022-12-03T03:27:41.155Z,98739.56
2022-12-03T03:30:08.270Z,98748.19
2022-12-03T03:32:35.346Z,98738.59
2022-12-03T03:35:02.419Z,98734.34
2022-12-03T03:37:29.506Z,98737.88
2022-12-03T03:39:56.731Z,98737.78
2022-12-03T03:42:23.843Z,98745.69
2022-12-03T03:44:51.139Z,98738.94
2022-12-03T03:47:18.466Z,98739.66
2022-12-03T03:49:47.888Z,98737.88
2022-12-03T03:52:14.992Z,98739.66
2022-12-03T03:54:42.114Z,98746.84
2022-12-03T03:57:09.223Z,98739.50
2022-12-03T03:59:36.317Z,98740.19
2022-12-03T04:02:03.496Z,98748.00
2022-12-03T04:04:30.760Z,98743.41
2022-12-03T04:06:57.951Z,98738.34
2022-12-03T04:09:25.029Z,98747.16
2022-12-03T04:12:10.956Z,98739.38
2022-12-03T04:14:38.025Z,98736.88
2022-12-03T04:17:05.095Z,98731.06
2022-12-03T04:19:32.164Z,98731.06
2022-12-03T04:22:18.271Z,98719.81
2022-12-03T04:24:45.289Z,98726.19
2022-12-03T04:27:31.208Z,98727.13
2022-12-03T04:29:58.314Z,98727.03
2022-12-03T04:32:43.933Z,98730.34
2022-12-03T04:35:29.714Z,98718.38
2022-12-03T04:37:56.833Z,98725.13
2022-12-03T04:40:42.466Z,98721.91
2022-12-03T04:43:09.793Z,98710.56
2022-12-03T04:45:36.909Z,98714.94
2022-12-03T04:48:04.046Z,98709.75
2022-12-03T04:50:31.153Z,98719.31
2022-12-03T04:52:58.214Z,98715.69
2022-12-03T04:55:25.262Z,98712.81
2022-12-03T04:57:52.322Z,98709.59
2022-12-03T05:00:19.455Z,98716.56
2022-12-03T05:02:46.599Z,98715.69
2022-12-03T05:05:13.704Z,98717.38
2022-12-03T05:07:40.786Z,98710.63
2022-12-03T05:10:07.858Z,98708.03
2022-12-03T05:12:34.933Z,98704.94
2022-12-03T05:15:01.994Z,98707.41
2022-12-03T05:17:29.156Z,98705.75
2022-12-03T05:20:14.978Z,98704.19
2022-12-03T05:22:42.049Z,98701.81
2022-12-03T05:25:09.112Z,98702.75
2022-12-03T05:27:36.193Z,98704.59
2022-12-03T05:30:03.263Z,98703.91
2022-12-03T05:32:30.366Z,98700.47
2022-12-03T05:34:57.429Z,98699.03
2022-12-03T05:37:24.481Z,98696.53
2022-12-03T05:39:51.536Z,98696.66
2022-12-03T05:42:37.394Z,98703.50
2022-12-03T05:45:04.485Z,98701.09
2022-12-03T05:47:31.542Z,98704.66
2022-12-03T05:49:58.602Z,98696.97
2022-12-03T05:52:25.708Z,98702.25
2022-12-03T05:54:53.076Z,98706.53
2022-12-03T05:57:20.299Z,98704.03
2022-12-03T05:59:47.457Z,98695.41
2022-12-03T06:02:14.580Z,98698.00
2022-12-03T06:04:41.736Z,98698.13
2022-12-03T06:07:13.794Z,98695.63
2022-12-03T06:09:41.303Z,98697.28
2022-12-03T06:12:11.165Z,98688.03
2022-12-03T06:14:38.215Z,98692.41
2022-12-03T06:17:05.304Z,98690.75
2022-12-03T06:19:32.349Z,98694.34
2022-12-03T06:21:59.457Z,98699.50
2022-12-03T06:24:26.538Z,98696.88
2022-12-03T06:26:53.637Z,98695.28
2022-12-03T06:29:20.703Z,98688.31
2022-12-03T06:31:47.786Z,98694.56
2022-12-03T06:34:14.837Z,98696.31
2022-12-03T06:36:41.909Z,98699.88
2022-12-03T06:39:08.969Z,98703.19
2022-12-03T06:41:36.087Z,98706.09
2022-12-03T06:44:03.202Z,98710.38
2022-12-03T06:46:30.324Z,98716.59
2022-12-03T06:48:57.429Z,98726.88
2022-12-03T06:51:24.504Z,98726.06
2022-12-03T06:53:51.579Z,98729.59
2022-12-03T06:56:22.076Z,98726.16
2022-12-03T06:58:49.632Z,98740.00
2022-12-03T07:01:16.722Z,98735.72
2022-12-03T07:03:43.875Z,98745.38
2022-12-03T07:06:10.928Z,98747.28
2022-12-03T07:08:38.006Z,98747.97
2022-12-03T07:11:05.064Z,98747.47
2022-12-03T07:13:32.106Z,98751.72
2022-12-03T07:15:59.213Z,98745.69
2022-12-03T07:18:26.294Z,98749.13
2022-12-03T07:20:53.438Z,98752.56
2022-12-03T07:23:20.562Z,98752.66
2022-12-03T07:25:47.658Z,98745.69
2022-12-03T07:28:14.733Z,98742.38
2022-12-03T07:30:41.790Z,98738.94
2022-12-03T07:33:08.868Z,98740.00
2022-12-03T07:35:35.922Z,98737.28
2022-12-03T07:38:02.977Z,98743.50
2022-12-03T07:40:30.225Z,98743.50
2022-12-03T07:42:57.289Z,98740.09
2022-12-03T07:45:24.343Z,98747.16
2022-12-03T07:47:51.402Z,98748.69
2022-12-03T07:50:18.514Z,98739.25
2022-12-03T07:52:45.581Z,98745.28
2022-12-03T07:55:13.348Z,98741.97
2022-12-03T07:57:40.407Z,98744.56
2022-12-03T08:00:07.480Z,98747.25
2022-12-03T08:02:34.670Z,98740.53
2022-12-03T08:05:01.789Z,98735.31
2022-12-03T08:07:28.918Z,98741.34
2022-12-03T08:09:56.026Z,98737.91
2022-12-03T08:12:23.142Z,98732.59
2022-12-03T08:14:50.261Z,98736.22
2022-12-03T08:17:18.586Z,98738.00
2022-12-03T08:19:45.646Z,98735.31
2022-12-03T08:22:12.712Z,98734.47
2022-12-03T08:24:39.817Z,98728.34
2022-12-03T08:27:06.891Z,98732.59
2022-12-03T08:29:33.963Z,98732.72
2022-12-03T08:32:01.096Z,98728.44
2022-12-03T08:34:28.247Z,98731.78
2022-12-03T08:36:55.315Z,98726.47
2022-12-03T08:39:22.394Z,98723.88
2022-12-03T08:42:13.590Z,98728.13
2022-12-03T08:44:44.168Z,98723.88
2022-12-03T08:47:13.039Z,98714.44
2022-12-03T08:49:40.342Z,98720.66
2022-12-03T08:52:07.433Z,98716.28
2022-12-03T08:54:34.546Z,98709.34
2022-12-03T08:57:01.599Z,98718.06
2022-12-03T08:59:28.705Z,98714.53
2022-12-03T09:01:55.761Z,98705.06
2022-12-03T09:04:23.038Z,98703.00
2022-12-03T09:06:50.151Z,98705.59
2022-12-03T09:09:17.213Z,98702.06
2022-12-03T09:11:44.378Z,98712.34
2022-12-03T09:14:15.235Z,98717.44
2022-12-03T09:16:45.348Z,98721.06
2022-12-03T09:19:12.458Z,98723.47
2022-12-03T09:21:39.538Z,98722.53
2022-12-03T09:24:06.638Z,98718.91
2022-12-03T09:26:33.701Z,98721.69
2022-12-03T09:29:00.768Z,98731.88
2022-12-03T09:31:27.934Z,98726.56
2022-12-03T09:33:55.017Z,98729.19
2022-12-03T09:36:22.099Z,98733.66
2022-12-03T09:38:49.239Z,98735.09
2022-12-03T09:41:16.294Z,98730.00
2022-12-03T09:44:03.447Z,98728.16
2022-12-03T09:46:30.508Z,98730.00
2022-12-03T09:48:57.653Z,98729.19
2022-12-03T09:51:24.705Z,98722.63
2022-12-03T09:53:51.944Z,98722.75
2022-12-03T09:56:19.268Z,98721.69
2022-12-03T09:58:46.374Z,98720.53
2022-12-03T10:01:13.586Z,98720.66
2022-12-03T10:03:41.058Z,98717.84
2022-12-03T10:06:08.208Z,98727.41
2022-12-03T10:08:35.355Z,98716.50
2022-12-03T10:11:02.422Z,98703.41
2022-12-03T10:13:29.488Z,98702.88
2022-12-03T10:15:56.582Z,98699.56
2022-12-03T10:18:23.683Z,98700.19
2022-12-03T10:20:50.775Z,98699.13
2022-12-03T10:23:17.844Z,98698.28
2022-12-03T10:25:44.899Z,98694.66
2022-12-03T10:28:12.000Z,98690.41
2022-12-03T10:30:39.179Z,98687.47
2022-12-03T10:33:06.250Z,98686.19
2022-12-03T10:35:33.321Z,98674.03
2022-12-03T10:38:00.395Z,98661.22
2022-12-03T10:40:27.565Z,98651.97
2022-12-03T10:42:54.672Z,98649.03
2022-12-03T10:45:22.626Z,98643.94
2022-12-03T10:47:49.810Z,98643.72
2022-12-03T10:50:16.960Z,98646.44
2022-12-03T10:52:44.094Z,98644.88
2022-12-03T10:55:11.195Z,98642.28
2022-12-03T10:57:43.737Z,98632.38
2022-12-03T11:00:12.541Z,98629.50
2022-12-03T11:02:39.618Z,98633.44
2022-12-03T11:05:06.716Z,98635.72
2022-12-03T11:07:33.796Z,98635.97
2022-12-03T11:10:02.676Z,98637.03
2022-12-03T11:12:34.663Z,98637.88
2022-12-03T11:15:06.453Z,98636.19
2022-12-03T11:17:33.557Z,98635.38
2022-12-03T11:20:00.613Z,98636.09
2022-12-03T11:22:27.740Z,98638.59
2022-12-03T11:24:55.179Z,98634.81
2022-12-03T11:27:22.527Z,98633.59
2022-12-03T11:29:49.677Z,98633.38
2022-12-03T11:32:16.783Z,98629.75
2022-12-03T11:34:44.125Z,98627.03
2022-12-03T11:37:11.310Z,98622.91
2022-12-03T11:39:38.382Z,98619.44
2022-12-03T11:42:05.463Z,98608.34
2022-12-03T11:44:32.668Z,98611.03
2022-12-03T11:46:59.994Z,98605.75
2022-12-03T11:49:27.164Z,98602.09
2022-12-03T11:51:54.253Z,98608.94
2022-12-03T11:54:21.319Z,98608.22
2022-12-03T11:56:49.481Z,98597.59
2022-12-03T11:59:16.879Z,98588.72
2022-12-03T12:01:43.945Z,98598.75
2022-12-03T12:04:11.051Z,98596.66
2022-12-03T12:06:38.160Z,98597.25
2022-12-03T12:09:05.215Z,98588.63
2022-12-03T12:11:32.335Z,98587.94
2022-12-03T12:13:59.499Z,98592.06
2022-12-03T12:16:26.608Z,98594.66
2022-12-03T12:18:55.387Z,98581.78
2022-12-03T12:21:22.889Z,98583.78
2022-12-03T12:23:49.958Z,98584.03
2022-12-03T12:26:17.013Z,98581.34
2022-12-03T12:28:44.132Z,98576.19
2022-12-03T12:31:11.594Z,98572.22
2022-12-03T12:33:38.748Z,98582.41
2022-12-03T12:36:05.909Z,98579.88
2022-12-03T12:38:32.969Z,98573.78
2022-12-03T12:41:00.031Z,98574.69
2022-12-03T12:43:27.114Z,98580.84
2022-12-03T12:45:54.577Z,98579.75
2022-12-03T12:48:21.998Z,98572.34
2022-12-03T12:50:49.142Z,98579.88
2022-12-03T12:53:16.208Z,98580.84
2022-12-03T12:55:43.543Z,98570.91
2022-12-03T12:58:10.618Z,98573.44
2022-12-03T13:00:37.725Z,98579.78
2022-12-03T13:03:04.856Z,98574.75
2022-12-03T13:05:31.937Z,98565.97
2022-12-03T13:07:59.043Z,98558.59
2022-12-03T13:10:26.238Z,98554.00
2022-12-03T13:12:53.313Z,98558.38
2022-12-03T13:15:20.389Z,98557.50
2022-12-03T13:17:53.874Z,98556.84
2022-12-03T13:20:20.940Z,98543.75
2022-12-03T13:22:54.885Z,98555.78
2022-12-03T13:25:44.033Z,98548.22
2022-12-03T13:28:15.941Z,98542.78
2022-12-03T13:30:44.064Z,98533.94
2022-12-03T13:33:11.634Z,98541.84
2022-12-03T13:35:39.906Z,98536.56
2022-12-03T13:38:07.007Z,98537.47
2022-12-03T13:40:37.169Z,98531.44
2022-12-03T13:43:04.384Z,98535.69
2022-12-03T13:45:31.487Z,98539.97
2022-12-03T13:47:58.584Z,98530.75
2022-12-03T13:50:25.643Z,98533.56
2022-12-03T13:52:53.147Z,98537.09
2022-12-03T13:55:20.207Z,98537.59
2022-12-03T13:57:47.250Z,98534.03
2022-12-03T14:00:14.312Z,98536.75
2022-12-03T14:02:41.447Z,98531.44
2022-12-03T14:05:08.547Z,98544.56
2022-12-03T14:07:35.630Z,98539.38
2022-12-03T14:10:02.718Z,98528.97
2022-12-03T14:12:33.831Z,98532.16
2022-12-03T14:15:01.146Z,98530.63
2022-12-03T14:17:28.313Z,98535.94
2022-12-03T14:19:55.569Z,98535.94
2022-12-03T14:22:25.169Z,98531.53
2022-12-03T14:24:52.226Z,98535.06
2022-12-03T14:27:19.374Z,98534.16
2022-12-03T14:29:46.446Z,98533.00
2022-12-03T14:32:13.591Z,98532.03
2022-12-03T14:34:40.755Z,98531.34
2022-12-03T14:37:07.943Z,98527.88
2022-12-03T14:39:35.080Z,98536.56
2022-12-03T14:42:14.500Z,98539.97
2022-12-03T14:44:41.718Z,98540.19
2022-12-03T14:47:08.801Z,98538.41
2022-12-03T14:49:35.910Z,98536.56
2022-12-03T14:52:02.960Z,98531.34
2022-12-03T14:54:30.278Z,98531.66
2022-12-03T14:56:57.395Z,98542.66
2022-12-03T14:59:27.614Z,98534.16
2022-12-03T15:01:55.438Z,98535.94
2022-12-03T15:04:22.717Z,98524.47
2022-12-03T15:06:49.814Z,98530.63
2022-12-03T15:09:16.906Z,98530.00
2022-12-03T15:11:46.334Z,98534.59
2022-12-03T15:14:13.792Z,98534.16
2022-12-03T15:16:40.907Z,98537.09
2022-12-03T15:19:08.046Z,98538.53
2022-12-03T15:21:35.191Z,98531.78
2022-12-03T15:24:02.346Z,98538.97
2022-12-03T15:26:29.586Z,98531.91
2022-12-03T15:28:56.668Z,98526.47
2022-12-03T15:31:23.921Z,98530.00
2022-12-03T15:33:51.001Z,98525.63
2022-12-03T15:36:18.067Z,98526.47
2022-12-03T15:38:45.165Z,98521.16
2022-12-03T15:41:21.797Z,98524.94
2022-12-03T15:43:48.846Z,98524.19
2022-12-03T15:46:15.950Z,98529.66
2022-12-03T15:48:43.072Z,98529.66
2022-12-03T15:51:10.139Z,98532.59
2022-12-03T15:53:38.037Z,98539.94
2022-12-03T15:56:05.092Z,98536.84
2022-12-03T15:58:32.143Z,98537.19
2022-12-03T16:00:59.203Z,98539.81
2022-12-03T16:03:26.360Z,98538.25
2022-12-03T16:05:53.462Z,98529.53
2022-12-03T16:08:20.553Z,98536.50
2022-12-03T16:10:47.714Z,98539.41
2022-12-03T16:13:14.791Z,98534.13
2022-12-03T16:15:41.924Z,98546.16
2022-12-03T16:18:09.276Z,98546.91
2022-12-03T16:20:36.356Z,98542.63
2022-12-03T16:23:03.455Z,98547.94
2022-12-03T16:25:30.537Z,98544.25
2022-12-03T16:27:57.696Z,98545.47
2022-12-03T16:30:24.826Z,98548.06
2022-12-03T16:32:51.943Z,98550.06
2022-12-03T16:35:19.044Z,98548.97
2022-12-03T16:37:46.109Z,98550.06
2022-12-03T16:40:13.206Z,98546.38
2022-12-03T16:42:40.782Z,98548.88
2022-12-03T16:45:10.688Z,98543.78
2022-12-03T16:47:37.740Z,98548.97
2022-12-03T16:50:04.879Z,98545.78
2022-12-03T16:52:31.953Z,98547.47
2022-12-03T16:54:59.067Z,98541.31
2022-12-03T16:57:30.364Z,98537.06
2022-12-03T17:00:00.734Z,98541.53
2022-12-03T17:02:28.117Z,98542.34
2022-12-03T17:04:55.389Z,98533.25
2022-12-03T17:07:22.461Z,98532.91
2022-12-03T17:09:49.578Z,98531.47
2022-12-03T17:12:16.632Z,98533.13
2022-12-03T17:14:43.709Z,98533.00
2022-12-03T17:17:10.801Z,98527.91
2022-12-03T17:19:37.882Z,98532.63
2022-12-03T17:22:04.949Z,98530.94
2022-12-03T17:24:32.005Z,98522.25
2022-12-03T17:26:59.324Z,98528.75
2022-12-03T17:29:26.518Z,98524.50
2022-12-03T17:31:53.607Z,98519.44
2022-12-03T17:34:20.747Z,98522.84
2022-12-03T17:36:47.817Z,98511.94
2022-12-03T17:39:14.876Z,98516.09
2022-12-03T17:41:41.997Z,98514.44
2022-12-03T17:44:12.127Z,98512.06
2022-12-03T17:46:41.150Z,98507.47
2022-12-03T17:49:08.291Z,98514.44
2022-12-03T17:51:35.436Z,98499.47
2022-12-03T17:54:02.597Z,98500.28
2022-12-03T17:56:29.689Z,98493.53
2022-12-03T17:58:57.178Z,98489.28
2022-12-03T18:01:24.333Z,98487.28
2022-12-03T18:03:51.510Z,98484.91
2022-12-03T18:06:18.615Z,98485.72
2022-12-03T18:08:45.706Z,98487.50
2022-12-03T18:11:12.818Z,98485.25
2022-12-03T18:13:39.929Z,98499.69
2022-12-03T18:16:07.053Z,98495.19
2022-12-03T18:18:34.167Z,98496.13
2022-12-03T18:21:02.230Z,98495.44
2022-12-03T18:23:29.380Z,98491.88
2022-12-03T18:25:56.435Z,98504.16
2022-12-03T18:28:23.492Z,98506.75
2022-12-03T18:30:52.832Z,98508.31
2022-12-03T18:33:21.269Z,98507.56
2022-12-03T18:35:48.411Z,98508.50
2022-12-03T18:38:15.546Z,98503.31
2022-12-03T18:40:42.629Z,98500.84
2022-12-03T18:43:09.698Z,98495.75
2022-12-03T18:45:36.762Z,98486.06
2022-12-03T18:48:03.939Z,98489.72
2022-12-03T18:50:31.093Z,98481.69
2022-12-03T18:52:58.143Z,98484.31
2022-12-03T18:55:25.190Z,98485.03
2022-12-03T18:57:52.316Z,98480.88
2022-12-03T19:00:19.386Z,98495.75
2022-12-03T19:03:02.571Z,98487.94
2022-12-03T19:05:30.598Z,98478.41
2022-12-03T19:07:57.708Z,98471.72
2022-12-03T19:10:24.825Z,98480.28
2022-12-03T19:12:51.908Z,98476.91
2022-12-03T19:15:19.022Z,98475.38
2022-12-03T19:17:46.090Z,98471.97
2022-12-03T19:20:13.141Z,98477.84
2022-12-03T19:22:40.226Z,98476.91
2022-12-03T19:25:07.291Z,98473.44
2022-12-03T19:27:34.488Z,98476.91
2022-12-03T19:30:01.552Z,98472.97
2022-12-03T19:32:28.629Z,98473.91
2022-12-03T19:34:55.758Z,98467.16
2022-12-03T19:37:22.817Z,98466.63
2022-12-03T19:39:49.899Z,98462.50
2022-12-03T19:42:17.364Z,98470.19
2022-12-03T19:44:44.431Z,98458.13
2022-12-03T19:47:11.507Z,98456.88
2022-12-03T19:49:38.608Z,98459.56
2022-12-03T19:52:05.680Z,98456.88
2022-12-03T19:54:32.887Z,98459.47
2022-12-03T19:57:00.055Z,98458.84
2022-12-03T19:59:27.117Z,98450.94
2022-12-03T20:01:54.307Z,98451.69
2022-12-03T20:04:21.489Z,98451.78
2022-12-03T20:06:48.581Z,98438.34
2022-12-03T20:09:18.045Z,98441.91
2022-12-03T20:11:45.928Z,98439.31
2022-12-03T20:14:13.152Z,98443.56
2022-12-03T20:16:40.266Z,98435.75
2022-12-03T20:19:07.405Z,98433.75
2022-12-03T20:21:34.540Z,98441.34
2022-12-03T20:24:01.631Z,98442.16
2022-12-03T20:26:28.726Z,98442.16
2022-12-03T20:28:58.315Z,98442.38
2022-12-03T20:31:25.464Z,98441.34
2022-12-03T20:33:52.554Z,98435.31
2022-12-03T20:36:20.664Z,98446.75
2022-12-03T20:38:48.175Z,98444.97
2022-12-03T20:41:15.271Z,98447.69
2022-12-03T20:43:42.423Z,98446.28
2022-12-03T20:46:09.549Z,98447.69
2022-12-03T20:48:36.678Z,98454.78
2022-12-03T20:51:03.863Z,98448.97
2022-12-03T20:53:31.122Z,98445.19
2022-12-03T20:55:58.235Z,98443.69
2022-12-03T20:58:25.362Z,98437.66
2022-12-03T21:00:52.492Z,98437.75
2022-12-03T21:03:19.635Z,98442.84
2022-12-03T21:05:47.585Z,98434.09
2022-12-03T21:08:14.720Z,98427.00
2022-12-03T21:10:45.151Z,98424.41
2022-12-03T21:13:12.230Z,98425.13
2022-12-03T21:15:39.334Z,98425.88
2022-12-03T21:18:06.429Z,98431.63
2022-12-03T21:20:33.537Z,98430.59
2022-12-03T21:23:00.625Z,98430.16
2022-12-03T21:25:27.684Z,98421.19
2022-12-03T21:27:56.155Z,98417.16
2022-12-03T21:30:23.442Z,98413.97
2022-12-03T21:32:50.642Z,98415.13
2022-12-03T21:35:18.583Z,98413.84
2022-12-03T21:37:45.654Z,98411.63
2022-12-03T21:40:12.769Z,98412.44
2022-12-03T21:42:39.828Z,98415.78
2022-12-03T21:45:07.409Z,98411.50
2022-12-03T21:47:37.196Z,98412.34
2022-12-03T21:50:04.882Z,98403.84
2022-12-03T21:52:32.108Z,98414.00
2022-12-03T21:54:59.209Z,98399.38
2022-12-03T21:57:26.306Z,98408.00
2022-12-03T21:59:53.768Z,98405.41
2022-12-03T22:02:21.125Z,98396.50
2022-12-03T22:04:48.214Z,98398.19
2022-12-03T22:07:15.273Z,98399.69
2022-12-03T22:09:42.352Z,98397.47
2022-12-03T22:12:09.411Z,98402.19
2022-12-03T22:14:36.537Z,98403.63
2022-12-03T22:17:03.606Z,98397.59
2022-12-03T22:19:30.689Z,98403.50
2022-12-03T22:21:57.797Z,98399.25
2022-12-03T22:24:24.942Z,98400.78
2022-12-03T22:26:54.643Z,98403.69
2022-12-03T22:29:21.810Z,98391.19
2022-12-03T22:31:48.890Z,98384.91
2022-12-03T22:34:15.946Z,98383.84
2022-12-03T22:36:43.032Z,98384.69
2022-12-03T22:39:10.097Z,98387.28
2022-12-03T22:41:37.171Z,98376.88
2022-12-03T22:44:04.301Z,98371.91
2022-12-03T22:46:31.372Z,98362.59
2022-12-03T22:49:03.307Z,98356.31
2022-12-03T22:51:33.711Z,98363.41
2022-12-03T22:54:01.079Z,98357.75
2022-12-03T22:56:28.559Z,98351.00
2022-12-03T22:58:55.620Z,98349.22
2022-12-03T23:01:22.702Z,98351.09
2022-12-03T23:03:49.995Z,98347.09
2022-12-03T23:06:17.218Z,98344.16
2022-12-03T23:08:44.281Z,98338.94
2022-12-03T23:11:11.349Z,98339.28
2022-12-03T23:13:38.420Z,98339.66
2022-12-03T23:16:05.570Z,98346.75
2022-12-03T23:18:32.752Z,98354.53
2022-12-03T23:20:59.798Z,98353.94
2022-12-03T23:23:26.843Z,98354.19
2022-12-03T23:25:53.898Z,98352.28
2022-12-03T23:28:21.224Z,98352.28
2022-12-03T23:30:48.336Z,98352.28
2022-12-03T23:33:16.701Z,98352.75
2022-12-03T23:35:44.395Z,98358.78
2022-12-03T23:38:11.750Z,98357.94
2022-12-03T23:40:42.271Z,98362.19
2022-12-03T23:43:11.940Z,98352.75
2022-12-03T23:45:39.069Z,98359.59
2022-12-03T23:48:06.143Z,98349.19
2022-12-03T23:50:34.645Z,98339.75
2022-12-03T23:53:01.708Z,98344.00
2022-12-03T23:55:28.768Z,98340.81
2022-12-03T23:57:55.842Z,98339.84
